Accueil
METAR-TAF:

METAR-TAF

Aéroports :

Luni

Sarzana, Italie

latitude: 44-05N, longitude: 009-59E, altitude: 9 m

Observation

Le bulletin a été fait il y a 10 heures et 39 minutes, à 13:55 UTC
Vent 3 kt de sud-ouest
Température 32°C
Humidité 46%
Pression 1018 hPa
Visibilité 10 km ou plus
Quelques nuages à une hauteur de 2500 ft

METAR: LIQW 201355Z 23003KT 9999 FEW025 32/19 Q1018 RMK FEW VIS MIN 9999 WIND THR18 23005KT BLU

Heure: 02:34 (00:34 UTC)


TAF: absent

Observations et prévisions météorologiques de plus de 4000 aéroports (messages METAR et TAF).

Les stations disponibles sont représentées par des disques jaunes et rouges sur la carte.

Passer la souris dessus pour voir le nom de la station.

Cliquer dessus pour voir les observations et prévisions météorologiques.

Pour changer de carte: cliquez sur les boutons verts avec une croix noire pour zoomer, sur le bouton vert avec un tiret pour effectuer un zoom arrière, ou sur les flèches vertes pour les cartes adjacentes.


METAR-TAF: